createdAt,value
2023-04-09T00:04:13.232Z,1.40
2023-04-09T00:10:15.078Z,1.20
2023-04-09T00:16:16.910Z,1.10
2023-04-09T00:22:18.888Z,1.20
2023-04-09T00:28:21.965Z,1.20
2023-04-09T00:34:23.773Z,1.20
2023-04-09T00:40:25.531Z,1.10
2023-04-09T00:46:27.296Z,1.50
2023-04-09T00:52:32.038Z,1.50
2023-04-09T00:58:33.993Z,1.60
2023-04-09T01:04:36.441Z,1.80
2023-04-09T01:10:42.443Z,1.90
2023-04-09T01:16:47.857Z,2.10
2023-04-09T01:23:08.730Z,2.10
2023-04-09T01:29:11.038Z,2.20
2023-04-09T01:35:12.876Z,2.40
2023-04-09T01:41:16.493Z,2.60
2023-04-09T01:47:18.324Z,2.80
2023-04-09T01:53:20.179Z,3.00
2023-04-09T01:59:21.995Z,3.00
2023-04-09T02:05:27.119Z,2.70
2023-04-09T02:11:32.644Z,2.60
2023-04-09T02:17:34.765Z,2.70
2023-04-09T02:23:36.585Z,2.70
2023-04-09T02:29:41.364Z,2.80
2023-04-09T02:35:43.186Z,2.80
2023-04-09T02:41:45.035Z,2.90
2023-04-09T02:47:46.805Z,3.00
2023-04-09T02:53:48.690Z,3.20
2023-04-09T02:59:50.589Z,3.30
2023-04-09T03:05:52.554Z,3.30
2023-04-09T03:11:54.370Z,3.30
2023-04-09T03:17:56.282Z,3.20
2023-04-09T03:24:00.989Z,3.30
2023-04-09T03:30:03.402Z,3.30
2023-04-09T03:36:16.138Z,3.30
2023-04-09T03:42:46.995Z,3.30
2023-04-09T03:48:51.822Z,3.30
2023-04-09T03:54:54.534Z,3.20
2023-04-09T04:00:59.432Z,3.20
2023-04-09T04:07:15.627Z,3.10
2023-04-09T04:13:24.938Z,3.00
2023-04-09T04:19:31.274Z,2.80
2023-04-09T04:25:33.437Z,2.70
2023-04-09T04:31:36.100Z,2.60
2023-04-09T04:37:38.324Z,2.60
2023-04-09T04:43:41.568Z,2.60
2023-04-09T04:49:46.749Z,2.40
2023-04-09T04:55:48.684Z,2.50
2023-04-09T05:02:22.658Z,2.60
2023-04-09T05:08:47.849Z,2.70
2023-04-09T05:14:49.888Z,3.00
2023-04-09T05:20:51.858Z,3.20
2023-04-09T05:26:53.785Z,3.40
2023-04-09T05:32:56.299Z,3.60
2023-04-09T05:39:01.831Z,3.80
2023-04-09T05:45:05.520Z,4.00
2023-04-09T05:51:07.547Z,4.20
2023-04-09T05:57:09.647Z,4.40
2023-04-09T06:03:14.394Z,4.60
2023-04-09T06:09:16.311Z,4.80
2023-04-09T06:15:18.854Z,4.90
2023-04-09T06:21:20.821Z,5.10
2023-04-09T06:27:22.958Z,5.20
2023-04-09T06:33:25.288Z,5.40
2023-04-09T06:39:27.911Z,5.70
2023-04-09T06:45:29.761Z,5.80
2023-04-09T06:51:31.918Z,6.00
2023-04-09T06:57:33.699Z,6.30
2023-04-09T07:03:35.596Z,6.50
2023-04-09T07:10:06.452Z,6.60
2023-04-09T07:16:08.253Z,6.90
2023-04-09T07:22:09.989Z,7.00
2023-04-09T07:28:11.733Z,7.00
2023-04-09T07:34:13.453Z,7.20
2023-04-09T07:40:15.356Z,7.40
2023-04-09T07:46:21.240Z,7.60
2023-04-09T07:52:23.012Z,7.90
2023-04-09T07:58:24.892Z,8.20
2023-04-09T08:04:27.334Z,8.50
2023-04-09T08:10:29.152Z,8.70
2023-04-09T08:16:31.145Z,8.70
2023-04-09T08:22:33.081Z,9.00
2023-04-09T08:28:34.765Z,9.10
2023-04-09T08:34:36.698Z,9.20
2023-04-09T08:40:38.475Z,9.40
2023-04-09T08:46:40.259Z,9.60
2023-04-09T08:52:42.740Z,9.90
2023-04-09T08:58:45.107Z,10.20
2023-04-09T09:04:51.026Z,10.40
2023-04-09T09:10:52.803Z,10.60
2023-04-09T09:16:57.841Z,10.80
2023-04-09T09:23:00.255Z,10.80
2023-04-09T09:29:04.146Z,10.90
2023-04-09T09:35:06.988Z,10.90
2023-04-09T09:41:18.262Z,11.00
2023-04-09T09:47:20.768Z,11.50
2023-04-09T09:53:23.000Z,11.90
2023-04-09T09:59:27.148Z,12.20
2023-04-09T10:05:29.566Z,12.50
2023-04-09T10:11:32.977Z,12.80
2023-04-09T10:17:34.678Z,13.10
2023-04-09T10:23:39.141Z,13.40
2023-04-09T10:29:48.428Z,13.80
2023-04-09T10:35:50.140Z,14.20
2023-04-09T10:41:52.980Z,14.30
2023-04-09T10:47:54.798Z,14.10
2023-04-09T10:53:57.764Z,14.00
2023-04-09T10:59:59.525Z,14.40
2023-04-09T11:06:09.431Z,14.60
2023-04-09T11:12:11.608Z,14.90
2023-04-09T11:18:23.557Z,14.90
2023-04-09T11:24:25.317Z,14.60
2023-04-09T11:30:27.289Z,14.50
2023-04-09T11:36:29.150Z,14.60
2023-04-09T11:42:31.296Z,14.80
2023-04-09T11:48:33.243Z,15.60
2023-04-09T11:54:35.002Z,15.90
2023-04-09T12:00:40.458Z,15.20
2023-04-09T12:06:42.785Z,14.60
2023-04-09T12:12:46.463Z,14.30
2023-04-09T12:18:48.351Z,14.40
2023-04-09T12:24:50.592Z,14.80
2023-04-09T12:30:52.397Z,14.40
2023-04-09T12:36:54.202Z,14.40
2023-04-09T12:42:56.580Z,14.90
2023-04-09T12:48:58.390Z,15.00
2023-04-09T12:55:00.446Z,15.00
2023-04-09T13:01:04.260Z,15.10
2023-04-09T13:07:06.044Z,15.20
2023-04-09T13:13:12.041Z,14.90
2023-04-09T13:19:13.765Z,15.20
2023-04-09T13:25:16.352Z,15.90
2023-04-09T13:31:18.325Z,15.90
2023-04-09T13:37:20.383Z,15.70
2023-04-09T13:43:27.881Z,15.80
2023-04-09T13:49:30.941Z,16.10
2023-04-09T13:55:32.906Z,16.00
2023-04-09T14:01:34.824Z,15.90
2023-04-09T14:07:36.686Z,15.90
2023-04-09T14:13:38.463Z,15.60
2023-04-09T14:19:40.405Z,15.70
2023-04-09T14:25:42.196Z,15.60
2023-04-09T14:31:44.256Z,15.40
2023-04-09T14:37:46.845Z,15.00
2023-04-09T14:43:48.632Z,15.10
2023-04-09T14:49:50.422Z,14.90
2023-04-09T14:55:52.205Z,14.90
2023-04-09T15:01:54.131Z,15.20
2023-04-09T15:07:56.114Z,15.70
2023-04-09T15:13:58.036Z,16.10
2023-04-09T15:19:59.892Z,16.10
2023-04-09T15:26:01.685Z,15.90
2023-04-09T15:32:03.808Z,16.20
2023-04-09T15:38:05.642Z,16.10
2023-04-09T15:44:08.730Z,15.70
2023-04-09T15:50:10.726Z,15.70
2023-04-09T15:56:15.302Z,16.00
2023-04-09T16:02:17.173Z,16.60
2023-04-09T16:08:18.970Z,16.60
2023-04-09T16:14:21.241Z,17.40
2023-04-09T16:20:23.739Z,18.50
2023-04-09T16:26:25.508Z,18.70
2023-04-09T16:32:27.477Z,18.50
2023-04-09T16:38:31.058Z,17.80
2023-04-09T16:44:32.853Z,17.50
2023-04-09T16:50:34.692Z,17.60
2023-04-09T16:56:36.681Z,17.50
2023-04-09T17:02:39.584Z,17.20
2023-04-09T17:08:41.411Z,17.00
2023-04-09T17:14:44.456Z,16.90
2023-04-09T17:20:46.746Z,16.90
2023-04-09T17:26:48.622Z,15.30
2023-04-09T17:32:51.141Z,14.70
2023-04-09T17:38:53.547Z,13.80
2023-04-09T17:44:58.078Z,12.80
2023-04-09T17:50:59.839Z,11.70
2023-04-09T17:57:02.464Z,11.10
2023-04-09T18:03:04.782Z,10.20
2023-04-09T18:09:07.613Z,9.40
2023-04-09T18:15:09.710Z,8.80
2023-04-09T18:21:11.708Z,8.40
2023-04-09T18:27:13.420Z,7.90
2023-04-09T18:33:15.714Z,7.40
2023-04-09T18:39:17.456Z,7.20
2023-04-09T18:45:20.002Z,7.00
2023-04-09T18:51:21.790Z,6.90
2023-04-09T18:57:23.579Z,6.70
2023-04-09T19:03:27.114Z,6.60
2023-04-09T19:09:30.695Z,6.50
2023-04-09T19:15:32.482Z,6.40
2023-04-09T19:21:35.890Z,6.30
2023-04-09T19:27:38.666Z,6.20
2023-04-09T19:33:40.592Z,6.00
2023-04-09T19:39:42.408Z,5.80
2023-04-09T19:45:44.386Z,5.60
2023-04-09T19:51:46.612Z,5.50
2023-04-09T19:57:48.392Z,5.30
2023-04-09T20:03:50.355Z,5.30
2023-04-09T20:09:52.285Z,5.30
2023-04-09T20:15:54.725Z,5.50
2023-04-09T20:21:56.571Z,5.60
2023-04-09T20:27:58.476Z,5.90
2023-04-09T20:34:01.859Z,6.20
2023-04-09T20:40:03.973Z,6.40
2023-04-09T20:46:06.259Z,6.60
2023-04-09T20:52:09.478Z,6.60
2023-04-09T20:58:11.981Z,6.60
2023-04-09T21:04:15.057Z,6.50
2023-04-09T21:10:17.240Z,6.50
2023-04-09T21:16:19.162Z,6.50
2023-04-09T21:22:21.025Z,6.40
2023-04-09T21:28:22.796Z,6.40
2023-04-09T21:34:24.624Z,6.50
2023-04-09T21:40:26.660Z,6.60
2023-04-09T21:46:28.512Z,6.60
2023-04-09T21:52:30.685Z,6.70
2023-04-09T21:58:32.496Z,6.60
2023-04-09T22:04:37.503Z,6.60
2023-04-09T22:10:39.625Z,6.50
2023-04-09T22:16:41.588Z,6.40
2023-04-09T22:22:43.901Z,6.30
2023-04-09T22:28:45.720Z,6.30
2023-04-09T22:34:47.622Z,6.20
2023-04-09T22:40:49.462Z,6.10
2023-04-09T22:46:51.296Z,6.10
2023-04-09T22:52:54.524Z,6.10
2023-04-09T22:58:56.732Z,6.00
2023-04-09T23:04:58.647Z,6.00
2023-04-09T23:11:01.204Z,5.90
2023-04-09T23:17:03.633Z,5.80
2023-04-09T23:23:05.498Z,5.80
2023-04-09T23:29:08.957Z,5.60
2023-04-09T23:35:10.734Z,5.60
2023-04-09T23:41:14.034Z,5.60
2023-04-09T23:47:16.457Z,5.70
2023-04-09T23:53:18.344Z,5.70
2023-04-09T23:59:20.114Z,5.70
